Structure, Texas
Current Conditions -  °F | °C
As of 11:15 PM on Friday 24 Oct 2014 (Local Time) from KEDC Reporting Station
Few Clouds Few Clouds  
Wind Chill: 68°   Ceiling: Unl
Heat Index: 68°   Visibility: 10mi
Dew Point: 59°   Wind: 0mph
Humidity: 73%   Direction: NA
Pressure: 30.15"   Gusts: NA
Location:  30.2988°N, 97.3874°W
Report Text: KEDC 250415Z AUTO 00000KT 10SM FEW044 20/15 A3015 RMK AO2
Loading
Personal Weather Stations






























Interactive Weather Map New forecast layout! Learn more

10-Day Weather Forecast

Advertisements
Track Severe Weather on mobile